createdAt,value
2023-03-08T00:02:26.293Z,98452.31
2023-03-08T00:05:50.978Z,98457.02
2023-03-08T00:09:21.294Z,98460.53
2023-03-08T00:12:42.495Z,98466.39
2023-03-08T00:16:04.414Z,98458.35
2023-03-08T00:19:39.357Z,98463.44
2023-03-08T00:23:09.057Z,98458.00
2023-03-08T00:26:36.830Z,98463.24
2023-03-08T00:29:44.364Z,98461.03
2023-03-08T00:32:54.081Z,98458.15
2023-03-08T00:36:04.293Z,98460.67
2023-03-08T00:39:17.797Z,98462.16
2023-03-08T00:42:47.265Z,98462.15
2023-03-08T00:46:13.546Z,98458.25
2023-03-08T00:49:09.125Z,98455.89
2023-03-08T00:52:04.115Z,98457.25
2023-03-08T00:55:27.833Z,98456.39
2023-03-08T00:58:31.429Z,98460.27
2023-03-08T01:01:24.010Z,98458.71
2023-03-08T01:04:25.999Z,98462.42
2023-03-08T01:07:33.244Z,98465.29
2023-03-08T01:10:51.976Z,98462.75
2023-03-08T01:13:48.260Z,98463.77
2023-03-08T01:16:45.304Z,98459.52
2023-03-08T01:20:01.313Z,98459.02
2023-03-08T01:23:20.967Z,98459.88
2023-03-08T01:26:45.876Z,98456.30
2023-03-08T01:30:08.846Z,98456.98
2023-03-08T01:33:35.657Z,98456.98
2023-03-08T01:37:03.856Z,98456.33
2023-03-08T01:40:27.337Z,98459.88
2023-03-08T01:43:54.241Z,98457.48
2023-03-08T01:47:29.080Z,98456.29
2023-03-08T01:51:02.636Z,98455.59
2023-03-08T01:54:30.099Z,98458.42
2023-03-08T01:57:55.783Z,98455.02
2023-03-08T02:01:24.943Z,98461.23
2023-03-08T02:04:33.853Z,98463.25
2023-03-08T02:07:48.275Z,98462.04
2023-03-08T02:11:03.863Z,98459.77
2023-03-08T02:14:35.264Z,98468.20
2023-03-08T02:17:39.427Z,98468.34
2023-03-08T02:21:12.157Z,98473.44
2023-03-08T02:24:30.158Z,98483.77
2023-03-08T02:27:34.098Z,98487.16
2023-03-08T02:30:52.240Z,98484.27
2023-03-08T02:34:18.246Z,98485.91
2023-03-08T02:37:27.186Z,98488.77
2023-03-08T02:41:04.208Z,98489.29
2023-03-08T02:44:25.191Z,98495.73
2023-03-08T02:47:50.229Z,98500.80
2023-03-08T02:51:16.208Z,98495.87
2023-03-08T02:54:39.139Z,98503.48
2023-03-08T02:57:38.217Z,98507.15
2023-03-08T03:00:49.758Z,98508.63
2023-03-08T03:04:11.818Z,98506.60
2023-03-08T03:07:21.226Z,98512.52
2023-03-08T03:10:43.255Z,98512.16
2023-03-08T03:13:52.141Z,98517.07
2023-03-08T03:17:29.116Z,98521.09
2023-03-08T03:20:46.155Z,98528.48
2023-03-08T03:23:55.545Z,98529.13
2023-03-08T03:27:01.219Z,98530.83
2023-03-08T03:30:08.551Z,98532.52
2023-03-08T03:33:29.181Z,98537.41
2023-03-08T03:36:51.109Z,98544.66
2023-03-08T03:40:32.162Z,98543.92
2023-03-08T03:43:50.136Z,98550.99
2023-03-08T03:47:05.100Z,98551.42
2023-03-08T03:50:42.169Z,98558.13
2023-03-08T03:53:49.057Z,98565.55
2023-03-08T03:57:39.057Z,98575.70
2023-03-08T04:00:49.399Z,98577.23
2023-03-08T04:04:14.200Z,98585.35
2023-03-08T04:07:40.180Z,98586.65
2023-03-08T04:11:03.050Z,98591.14
2023-03-08T04:14:21.188Z,98592.61
2023-03-08T04:17:54.099Z,98595.89
2023-03-08T04:21:21.214Z,98597.04
2023-03-08T04:24:44.148Z,98599.58
2023-03-08T04:28:09.799Z,98599.56
2023-03-08T04:31:41.138Z,98608.52
2023-03-08T04:34:54.056Z,98609.60
2023-03-08T04:38:15.544Z,98610.36
2023-03-08T04:41:25.175Z,98613.68
2023-03-08T04:44:37.113Z,98614.95
2023-03-08T04:48:12.027Z,98621.09
2023-03-08T04:51:08.073Z,98617.08
2023-03-08T04:54:22.125Z,98619.06
2023-03-08T04:57:46.125Z,98622.31
2023-03-08T05:01:16.071Z,98622.14
2023-03-08T05:04:31.226Z,98622.98
2023-03-08T05:07:41.066Z,98624.64
2023-03-08T05:11:09.021Z,98630.88
2023-03-08T05:14:21.118Z,98637.38
2023-03-08T05:17:40.045Z,98634.27
2023-03-08T05:21:08.098Z,98639.98
2023-03-08T05:24:35.225Z,98638.34
2023-03-08T05:28:12.183Z,98639.27
2023-03-08T05:31:39.275Z,98647.27
2023-03-08T05:35:07.139Z,98655.26
2023-03-08T05:38:40.169Z,98658.04
2023-03-08T05:42:11.972Z,98667.21
2023-03-08T05:45:18.659Z,98673.14
2023-03-08T05:48:40.097Z,98675.66
2023-03-08T05:52:04.803Z,98675.98
2023-03-08T05:55:42.063Z,98680.31
2023-03-08T05:58:48.551Z,98687.20
2023-03-08T06:02:09.854Z,98690.37
2023-03-08T06:05:20.865Z,98690.66
2023-03-08T06:08:22.813Z,98697.05
2023-03-08T06:11:34.552Z,98695.84
2023-03-08T06:14:38.010Z,98702.38
2023-03-08T06:18:05.306Z,98711.92
2023-03-08T06:21:48.888Z,98721.01
2023-03-08T06:24:50.029Z,98722.26
2023-03-08T06:28:11.037Z,98731.41
2023-03-08T06:31:26.012Z,98735.51
2023-03-08T06:34:48.182Z,98734.83
2023-03-08T06:37:50.361Z,98740.91
2023-03-08T06:40:54.831Z,98744.45
2023-03-08T06:43:49.663Z,98744.09
2023-03-08T06:46:40.124Z,98755.42
2023-03-08T06:50:15.568Z,98755.25
2023-03-08T06:53:30.525Z,98770.79
2023-03-08T06:56:50.707Z,98769.95
2023-03-08T06:59:50.029Z,98779.22
2023-03-08T07:03:06.629Z,98778.19
2023-03-08T07:06:13.019Z,98787.09
2023-03-08T07:09:06.520Z,98789.21
2023-03-08T07:12:21.942Z,98786.80
2023-03-08T07:15:58.966Z,98796.02
2023-03-08T07:19:20.998Z,98801.46
2023-03-08T07:23:03.928Z,98803.52
2023-03-08T07:25:54.854Z,98806.93
2023-03-08T07:29:02.747Z,98811.01
2023-03-08T07:31:41.737Z,98813.71
2023-03-08T07:34:47.000Z,98822.35
2023-03-08T07:37:52.836Z,98823.91
2023-03-08T07:40:58.158Z,98833.79
2023-03-08T07:43:50.030Z,98835.86
2023-03-08T07:46:49.241Z,98838.76
2023-03-08T07:49:31.671Z,98842.34
2023-03-08T07:52:09.809Z,98848.51
2023-03-08T07:55:01.856Z,98850.99
2023-03-08T07:58:25.560Z,98855.46
2023-03-08T08:01:40.516Z,98850.61
2023-03-08T08:04:47.084Z,98851.21
2023-03-08T08:08:05.137Z,98854.17
2023-03-08T08:11:00.504Z,98857.17
2023-03-08T08:13:57.603Z,98859.88
2023-03-08T08:17:04.133Z,98870.30
2023-03-08T08:20:22.064Z,98872.70
2023-03-08T08:23:47.819Z,98872.58
2023-03-08T08:27:16.876Z,98882.16
2023-03-08T08:30:42.938Z,98874.58
2023-03-08T08:34:12.910Z,98884.05
2023-03-08T08:37:31.713Z,98877.64
2023-03-08T08:40:37.449Z,98882.80
2023-03-08T08:43:29.424Z,98886.25
2023-03-08T08:46:20.370Z,98890.91
2023-03-08T08:55:45.694Z,98890.73
2023-03-08T08:59:09.989Z,98893.84
2023-03-08T09:08:24.762Z,98897.47
2023-03-08T09:11:24.410Z,98889.86
2023-03-08T09:14:19.949Z,98890.79
2023-03-08T09:17:22.068Z,98884.59
2023-03-08T09:19:58.482Z,98891.34
2023-03-08T09:23:31.883Z,98891.97
2023-03-08T09:26:32.336Z,98886.85
2023-03-08T09:30:13.338Z,98893.88
2023-03-08T09:32:56.874Z,98900.44
2023-03-08T09:36:24.127Z,98891.73
2023-03-08T09:39:14.225Z,98895.49
2023-03-08T09:42:40.495Z,98895.46
2023-03-08T09:46:01.410Z,98894.13
2023-03-08T09:49:11.328Z,98897.55
2023-03-08T09:52:51.646Z,98896.27
2023-03-08T09:55:31.267Z,98898.34
2023-03-08T09:58:53.575Z,98899.03
2023-03-08T10:01:38.819Z,98900.23
2023-03-08T10:04:19.559Z,98899.73
2023-03-08T10:07:19.314Z,98900.48
2023-03-08T10:10:56.290Z,98898.38
2023-03-08T10:13:54.862Z,98909.18
2023-03-08T10:16:49.003Z,98907.40
2023-03-08T10:19:38.214Z,98905.81
2023-03-08T10:22:30.785Z,98909.85
2023-03-08T10:25:18.840Z,98908.20
2023-03-08T10:28:03.875Z,98913.34
2023-03-08T10:30:55.332Z,98909.15
2023-03-08T10:33:45.937Z,98911.89
2023-03-08T10:36:32.482Z,98919.05
2023-03-08T10:39:14.170Z,98915.65
2023-03-08T10:42:21.940Z,98920.52
2023-03-08T10:45:16.637Z,98921.89
2023-03-08T10:48:01.709Z,98922.76
2023-03-08T10:51:29.139Z,98924.48
2023-03-08T10:54:41.791Z,98923.65
2023-03-08T10:58:26.468Z,98923.40
2023-03-08T11:01:41.432Z,98916.98
2023-03-08T11:05:07.590Z,98923.69
2023-03-08T11:08:04.316Z,98916.14
2023-03-08T11:11:22.733Z,98913.72
2023-03-08T11:14:40.157Z,98920.20
2023-03-08T11:18:06.457Z,98917.17
2023-03-08T11:21:24.337Z,98916.96
2023-03-08T11:29:34.962Z,98921.88
2023-03-08T11:33:01.411Z,98921.50
2023-03-08T11:36:19.311Z,98919.23
2023-03-08T11:39:31.107Z,98927.70
2023-03-08T11:42:44.254Z,98927.70
2023-03-08T11:46:12.196Z,98923.45
2023-03-08T11:49:34.275Z,98926.33
2023-03-08T11:53:29.297Z,98919.90
2023-03-08T11:56:44.734Z,98920.11
2023-03-08T12:00:01.413Z,98916.89
2023-03-08T12:03:02.072Z,98925.73
2023-03-08T12:06:26.569Z,98924.76
2023-03-08T12:09:20.198Z,98924.89
2023-03-08T12:12:57.210Z,98922.31
2023-03-08T12:16:49.564Z,98921.61
2023-03-08T12:19:44.592Z,98921.95
2023-03-08T12:22:41.886Z,98916.56
2023-03-08T12:25:18.710Z,98918.16
2023-03-08T12:28:17.952Z,98922.38
2023-03-08T12:31:28.209Z,98922.16
2023-03-08T12:34:04.330Z,98924.18
2023-03-08T12:36:45.600Z,98926.08
2023-03-08T12:39:32.677Z,98917.11
2023-03-08T12:42:11.899Z,98923.66
2023-03-08T12:44:43.462Z,98920.20
2023-03-08T12:47:15.702Z,98920.30
2023-03-08T12:49:51.893Z,98926.80
2023-03-08T12:52:22.747Z,98934.10
2023-03-08T12:55:03.150Z,98933.36
2023-03-08T12:58:09.381Z,98930.57
2023-03-08T13:00:44.707Z,98928.95
2023-03-08T13:03:19.058Z,98928.05
2023-03-08T13:05:50.855Z,98921.58
2023-03-08T13:08:45.198Z,98921.83
2023-03-08T13:11:18.712Z,98919.61
2023-03-08T13:14:26.959Z,98922.67
2023-03-08T13:17:04.563Z,98918.63
2023-03-08T13:19:38.722Z,98918.36
2023-03-08T13:22:38.848Z,98914.84
2023-03-08T13:28:46.690Z,98914.85
2023-03-08T13:32:24.386Z,98922.00
2023-03-08T13:36:05.028Z,98918.77
2023-03-08T13:39:39.418Z,98916.22
2023-03-08T13:42:55.771Z,98919.27
2023-03-08T13:46:15.151Z,98914.70
2023-03-08T13:49:37.649Z,98916.98
2023-03-08T13:52:36.065Z,98918.88
2023-03-08T13:55:49.522Z,98918.43
2023-03-08T13:58:57.044Z,98913.85
2023-03-08T14:02:37.072Z,98912.16
2023-03-08T14:09:30.821Z,98912.00
2023-03-08T14:12:29.413Z,98904.34
2023-03-08T14:15:48.488Z,98900.76
2023-03-08T14:18:41.428Z,98905.67
2023-03-08T14:21:28.938Z,98901.70
2023-03-08T14:24:47.674Z,98899.48
2023-03-08T14:27:38.638Z,98900.66
2023-03-08T14:30:37.819Z,98896.42
2023-03-08T14:34:03.399Z,98899.16
2023-03-08T14:37:31.910Z,98905.80
2023-03-08T14:40:36.888Z,98894.41
2023-03-08T14:43:38.045Z,98894.92
2023-03-08T14:47:02.822Z,98895.58
2023-03-08T14:50:34.896Z,98889.96
2023-03-08T14:53:55.799Z,98888.42
2023-03-08T14:57:22.877Z,98889.42
2023-03-08T15:00:43.935Z,98887.86
2023-03-08T15:03:14.980Z,98888.06
2023-03-08T15:06:09.944Z,98885.99
2023-03-08T15:08:55.955Z,98887.35
2023-03-08T15:12:02.094Z,98883.27
2023-03-08T15:14:44.336Z,98881.40
2023-03-08T15:17:23.127Z,98881.23
2023-03-08T15:20:01.802Z,98877.86
2023-03-08T15:23:06.292Z,98882.27
2023-03-08T15:25:45.948Z,98880.88
2023-03-08T15:28:36.405Z,98885.11
2023-03-08T15:31:09.532Z,98884.08
2023-03-08T15:33:40.660Z,98883.90
2023-03-08T15:36:16.388Z,98883.05
2023-03-08T15:38:50.031Z,98885.59
2023-03-08T15:41:25.059Z,98882.36
2023-03-08T15:44:03.899Z,98883.02
2023-03-08T15:46:35.287Z,98883.88
2023-03-08T15:49:06.412Z,98879.64
2023-03-08T15:52:14.947Z,98879.48
2023-03-08T15:54:51.534Z,98875.59
2023-03-08T15:57:22.604Z,98878.66
2023-03-08T15:59:53.876Z,98881.55
2023-03-08T16:02:24.873Z,98879.86
2023-03-08T16:04:58.490Z,98879.38
2023-03-08T16:07:30.076Z,98880.06
2023-03-08T16:10:01.384Z,98879.58
2023-03-08T16:12:32.328Z,98878.89
2023-03-08T16:15:03.663Z,98882.80
2023-03-08T16:17:35.200Z,98884.15
2023-03-08T16:20:09.042Z,98887.55
2023-03-08T16:22:42.795Z,98885.86
2023-03-08T16:25:18.925Z,98885.35
2023-03-08T16:27:53.714Z,98891.84
2023-03-08T16:43:00.612Z,98897.19
2023-03-08T17:13:46.012Z,98880.61
2023-03-08T17:17:30.651Z,98879.08
2023-03-08T17:20:14.237Z,98876.33
2023-03-08T17:22:48.381Z,98884.82
2023-03-08T17:25:19.555Z,98884.63
2023-03-08T17:27:52.681Z,98885.42
2023-03-08T17:30:26.375Z,98879.31
2023-03-08T17:32:58.335Z,98880.83
2023-03-08T17:35:32.264Z,98878.43
2023-03-08T17:38:03.382Z,98875.88
2023-03-08T17:40:52.699Z,98875.34
2023-03-08T17:52:16.009Z,98864.02
2023-03-08T17:55:05.603Z,98858.70
2023-03-08T18:39:18.740Z,98839.52
2023-03-08T18:42:01.573Z,98837.02
2023-03-08T18:44:42.919Z,98832.77
2023-03-08T18:47:31.097Z,98832.98
2023-03-08T18:50:09.122Z,98824.99
2023-03-08T18:58:08.737Z,98814.70
2023-03-08T19:00:57.480Z,98812.51
